Latest Weather Observations for Adelaide Airport

IDS60901

Issued at 2:31 pm CST Friday 31 July 2015 (issued every 10 minutes, with the page automatically refreshed every 10 minutes)

About weather observations | Map of Adelaide area stations | Latest observations for Adelaide area | Other Formats
Station Details ID: 023034 Name: ADELAIDE AIRPORT Lat: -34.95 Lon: 138.52 Height: 2.0 m
Data from the previous 72 hours. | See also: Recent months at Adelaide Airport
Date/Time
CST
Tmp

°C
App
Tmp
°C
Dew
Point
°C
Rel
Hum
%
Delta-T

°C
Wind Press
QNH
hPa
Press
MSL
hPa
Rain
since
9 am
mm
Dir
 
Spd
km/h
Gust
km/h
Spd
kts
Gust
kts
31/02:00pm 15.5 9.2 5.7 52 4.7 NNW 28 35 15 19 1016.6 1016.6 0.0
31/01:30pm 15.4 9.3 4.7 49 5.0 NNW 26 33 14 18 1017.1 1017.1 0.0
31/01:00pm 15.0 8.8 4.4 49 4.9 N 26 37 14 20 1017.6 1017.6 0.0
31/12:30pm 14.9 9.1 4.3 49 4.9 N 24 32 13 17 1018.5 1018.5 0.0
31/12:00pm 14.1 8.8 5.1 54 4.2 N 22 30 12 16 1019.3 1019.3 0.0
31/11:30am 13.8 8.9 5.2 56 4.0 NNE 20 28 11 15 1019.9 1019.9 0.0
31/11:00am 13.7 8.8 4.3 53 4.3 N 19 26 10 14 1020.5 1020.5 0.0
31/10:30am 12.2 7.5 5.0 61 3.3 NNE 19 24 10 13 1020.8 1020.8 0.0
31/10:00am 11.4 6.7 5.0 65 2.9 NNE 19 26 10 14 1021.1 1021.1 0.0
31/09:30am 10.3 6.8 5.5 72 2.2 NE 13 13 7 7 1021.3 1021.3 0.0
31/09:00am 8.1 5.2 4.9 80 1.4 NNE 9 11 5 6 1021.9 1021.9 0.0
31/08:30am 6.2 3.7 4.6 89 0.7 ENE 7 9 4 5 1021.9 1021.9 0.0
31/08:00am 6.0 4.4 4.4 89 0.7 SW 2 7 1 4 1022.0 1022.0 0.0
31/07:30am 5.1 1.9 2.9 86 0.9 N 9 13 5 7 1022.1 1022.1 0.0
31/07:00am 3.7 0.8 2.7 93 0.4 NE 7 11 4 6 1022.0 1022.0 0.0
31/06:30am 3.9 0.5 2.1 88 0.7 NE 9 11 5 6 1021.6 1021.6 0.0
31/06:00am 3.0 1.4 2.2 94 0.3 CALM 0 0 0 0 1021.6 1021.6 0.0
31/05:30am 3.8 2.3 3.1 95 0.3 CALM 0 0 0 0 1021.5 1021.5 0.0
31/05:00am 3.6 0.6 2.1 90 0.6 ENE 7 7 4 4 1021.2 1021.2 0.0
31/04:30am 3.8 1.0 3.1 95 0.3 ENE 7 7 4 4 1021.3 1021.3 0.0
31/04:00am 4.3 1.6 3.6 95 0.3 ENE 7 9 4 5 1021.5 1021.5 0.0
31/03:30am 4.4 1.6 3.4 93 0.4 ESE 7 9 4 5 1021.5 1021.5 0.0
31/03:00am 5.1 2.3 3.4 89 0.7 ESE 7 9 4 5 1021.8 1021.8 0.0
31/02:30am 5.9 3.2 3.8 86 0.9 E 7 9 4 5 1022.1 1022.1 0.0
31/02:00am 6.6 4.9 3.8 82 1.2 ENE 2 6 1 3 1022.1 1022.1 0.0
31/01:30am 7.0 5.2 3.7 79 1.4 SE 2 7 1 4 1022.2 1022.2 0.0
31/01:00am 7.9 4.7 4.9 81 1.3 S 11 13 6 7 1022.3 1022.3 0.0
31/12:30am 8.5 6.3 6.3 86 1.0 SSW 7 9 4 5 1022.5 1022.5 0.0
31/12:00am 8.2 4.8 6.0 86 1.0 SSE 13 17 7 9 1022.3 1022.3 0.0
 
Date/Time
CST
Tmp

°C
App
Tmp
°C
Dew
Point
°C
Rel
Hum
%
Delta-T

°C
Wind Press
QNH
hPa
Press
MSL
hPa
Rain
since
9 am
mm
Dir
 
Spd
km/h
Gust
km/h
Spd
kts
Gust
kts
30/11:30pm 9.2 6.8 7.1 87 1.0 SSE 9 11 5 6 1022.4 1022.4 0.0
30/11:00pm 9.4 7.1 7.3 87 1.0 SSE 9 11 5 6 1022.5 1022.5 0.0
30/10:30pm 8.9 6.0 6.7 86 1.0 S 11 11 6 6 1022.5 1022.5 0.0
30/10:00pm 10.6 8.4 7.7 82 1.4 SSW 9 11 5 6 1022.5 1022.5 0.0
30/09:30pm 10.7 8.5 8.0 83 1.3 SSW 9 11 5 6 1022.2 1022.2 0.0
30/09:00pm 11.6 8.9 9.0 84 1.3 S 13 19 7 10 1021.7 1021.7 0.0
30/08:30pm 12.0 10.4 10.2 89 0.9 S 9 11 5 6 1021.3 1021.3 0.0
30/08:00pm 12.0 10.0 10.2 89 0.9 SSW 11 13 6 7 1021.1 1021.1 0.0
30/07:30pm 12.0 9.7 10.4 90 0.8 SSW 13 17 7 9 1020.6 1020.6 0.0
30/07:00pm 12.1 8.8 9.7 85 1.2 SSW 17 26 9 14 1020.4 1020.4 0.0
30/06:30pm 12.2 8.3 10.7 90 0.8 SSW 22 30 12 16 1020.0 1020.0 0.0
30/06:00pm 12.5 9.5 10.8 89 0.9 WNW 17 30 9 16 1019.7 1019.7 0.0
30/05:30pm 12.6 10.1 10.9 89 0.9 NW 15 20 8 11 1019.0 1019.0 0.0
30/05:00pm 12.8 9.1 10.3 85 1.3 NW 20 28 11 15 1018.8 1018.8 0.0
30/04:30pm 13.4 9.6 9.9 79 1.8 NW 20 26 11 14 1018.5 1018.5 0.0
30/04:00pm 13.3 9.5 9.8 79 1.8 NW 20 30 11 16 1018.3 1018.3 0.0
30/03:30pm 13.3 9.4 9.4 77 2.0 NW 20 26 11 14 1018.2 1018.2 0.0
30/03:00pm 13.4 8.2 8.8 74 2.3 NW 26 33 14 18 1018.2 1018.2 0.0
30/02:41pm 13.8 9.0 8.8 72 2.5 NW 24 37 13 20 1018.3 1018.3 0.0
30/02:30pm 13.4 7.9 9.0 75 2.2 NW 28 37 15 20 1018.4 1018.4 0.0
30/02:11pm 13.1 7.1 8.5 73 2.3 NW 30 41 16 22 1018.6 1018.6 0.0
30/02:00pm 13.9 7.2 5.6 57 3.9 NNW 30 37 16 20 1018.1 1018.1 0.0
30/01:30pm 13.8 6.4 5.0 55 4.1 NNW 33 43 18 23 1017.9 1017.9 0.0
30/01:00pm 13.6 6.1 4.4 53 4.2 NNW 33 41 18 22 1018.3 1018.3 0.0
30/12:30pm 13.6 5.2 3.6 51 4.5 NNW 37 52 20 28 1018.2 1018.2 0.0
30/12:00pm 13.4 3.8 3.6 51 4.4 NNW 43 52 23 28 1018.4 1018.4 0.0
30/11:30am 13.2 3.9 3.0 50 4.5 NNW 41 56 22 30 1018.7 1018.7 0.0
30/11:05am 13.2 3.4 2.4 48 4.7 NNW 43 61 23 33 1018.5 1018.5 0.0
30/11:00am 13.1 3.1 2.3 48 4.7 NNW 44 61 24 33 1018.6 1018.6 0.0
30/10:34am 13.3 5.1 2.6 48 4.7 NNW 35 54 19 29 1018.9 1018.9 0.0
30/10:30am 13.4 5.1 2.4 47 4.8 NNW 35 48 19 26 1019.0 1019.0 0.0
30/10:07am 13.1 5.1 0.4 42 5.3 N 32 50 17 27 1018.7 1018.7 0.0
30/10:00am 12.8 4.8 0.6 43 5.1 N 32 41 17 22 1018.6 1018.6 0.0
30/09:36am 12.4 4.8 0.6 44 4.9 N 30 48 16 26 1019.0 1019.0 0.0
30/09:30am 12.2 6.2 1.0 46 4.7 N 22 39 12 21 1018.8 1018.8 0.0
30/09:00am 11.7 4.6 1.2 48 4.4 NNE 28 37 15 20 1019.0 1019.0 0.0
30/08:30am 11.3 5.8 0.9 48 4.3 NNE 19 24 10 13 1019.4 1019.4 0.0
30/08:00am 10.5 3.8 1.7 54 3.7 NNE 26 33 14 18 1019.3 1019.3 0.0
30/07:30am 10.2 3.1 1.2 53 3.7 NNE 28 37 15 20 1019.1 1019.1 0.0
30/07:16am 10.5 2.5 0.7 50 4.0 NNE 32 50 17 27 1019.2 1019.2 0.0
30/07:00am 10.3 2.7 0.8 51 3.9 NNE 30 37 16 20 1019.0 1019.0 0.0
30/06:30am 9.7 3.0 1.5 56 3.4 NNE 26 35 14 19 1019.2 1019.2 0.0
30/06:00am 9.9 2.5 1.7 56 3.4 NNE 30 37 16 20 1018.9 1018.9 0.0
30/05:30am 9.8 2.5 2.5 60 3.1 NNE 30 35 16 19 1019.0 1019.0 0.0
30/05:00am 10.0 3.6 3.0 62 3.0 NE 26 33 14 18 1020.5 1020.5 0.0
30/04:30am 11.0 5.2 0.2 47 4.4 NNE 20 28 11 15 1021.0 1021.0 0.0
30/04:00am 11.1 4.9 -0.4 45 4.6 NE 22 32 12 17 1020.9 1020.9 0.0
30/03:30am 11.1 5.9 0.0 46 4.5 N 17 24 9 13 1021.2 1021.2 0.0
30/03:00am 11.3 5.1 -0.4 44 4.7 NNE 22 30 12 16 1021.4 1021.4 0.0
30/02:30am 11.4 5.2 -0.3 44 4.7 NNE 22 30 12 16 1022.2 1022.2 0.0
30/02:00am 11.6 5.0 -0.3 44 4.8 NNE 24 35 13 19 1022.6 1022.6 0.0
30/01:30am 11.6 5.4 -0.3 44 4.8 NNE 22 30 12 16 1022.7 1022.7 0.0
30/01:00am 11.3 5.9 1.2 50 4.2 NE 19 22 10 12 1023.0 1023.0 0.0
30/12:30am 11.5 5.8 0.6 47 4.5 NNE 20 28 11 15 1023.2 1023.2 0.0
30/12:00am 11.4 5.8 1.0 49 4.3 NNE 20 28 11 15 1023.4 1023.4 0.0
 
Date/Time
CST
Tmp

°C
App
Tmp
°C
Dew
Point
°C
Rel
Hum
%
Delta-T

°C
Wind Press
QNH
hPa
Press
MSL
hPa
Rain
since
9 am
mm
Dir
 
Spd
km/h
Gust
km/h
Spd
kts
Gust
kts
29/11:30pm 11.0 6.1 2.0 54 3.8 NNE 17 20 9 11 1023.8 1023.8 0.0
29/11:00pm 11.2 5.9 2.0 53 3.9 NNE 19 24 10 13 1024.1 1024.1 0.0
29/10:30pm 10.8 6.1 2.9 58 3.4 NE 17 20 9 11 1024.3 1024.3 0.0
29/10:00pm 9.8 5.6 3.6 65 2.7 NE 15 19 8 10 1024.5 1024.5 0.0
29/09:30pm 9.8 4.7 3.3 64 2.8 NE 19 20 10 11 1024.5 1024.5 0.0
29/09:00pm 8.0 3.7 3.5 73 1.9 NE 15 17 8 9 1025.0 1025.0 0.0
29/08:30pm 8.2 4.3 3.5 72 2.0 NE 13 17 7 9 1025.1 1025.1 0.0
29/08:00pm 8.9 5.0 3.5 69 2.3 NE 13 15 7 8 1025.2 1025.2 0.0
29/07:30pm 9.5 5.2 3.5 66 2.6 NNE 15 17 8 9 1025.2 1025.2 0.0
29/07:00pm 10.5 5.5 3.6 62 3.0 NNE 19 24 10 13 1025.3 1025.3 0.0
29/06:30pm 11.0 5.8 3.4 59 3.3 NE 20 32 11 17 1025.0 1025.0 0.0
29/06:00pm 11.6 5.9 3.1 56 3.7 NNE 22 28 12 15 1025.1 1025.1 0.0
29/05:30pm 12.1 6.0 2.6 52 4.1 NNE 24 32 13 17 1024.7 1024.7 0.0
29/05:00pm 12.3 7.0 3.2 54 4.0 NNE 20 28 11 15 1025.0 1025.0 0.0
29/04:30pm 13.2 8.0 3.3 51 4.4 NNE 20 28 11 15 1025.4 1025.4 0.0
29/04:00pm 13.1 7.4 2.8 49 4.5 N 22 30 12 16 1025.7 1025.7 0.0
29/03:30pm 12.9 7.2 2.6 49 4.5 N 22 28 12 15 1026.0 1026.0 0.0
29/03:00pm 13.3 7.0 1.6 45 5.0 N 24 32 13 17 1026.2 1026.2 0.0
29/02:30pm 12.9 7.1 2.3 48 4.6 NNE 22 28 12 15 1026.4 1026.4 0.0
29/02:00pm 12.6 6.3 1.8 47 4.6 N 24 33 13 18 1027.1 1027.1 0.0
29/01:30pm 12.2 6.1 2.5 51 4.2 N 24 33 13 18 1027.6 1027.6 0.0
29/01:00pm 12.0 5.4 2.2 51 4.2 N 26 33 14 18 1028.6 1028.6 0.0
29/12:30pm 11.8 5.7 2.5 53 4.0 N 24 35 13 19 1028.8 1028.8 0.0
29/12:00pm 12.0 6.0 3.3 55 3.8 N 24 32 13 17 1029.5 1029.5 0.0
29/11:30am 11.2 6.0 3.7 60 3.3 NNE 20 30 11 16 1030.0 1030.0 0.0
29/11:00am 10.9 5.2 3.0 58 3.4 N 22 30 12 16 1030.3 1030.3 0.0
29/10:30am 10.8 5.4 2.6 57 3.5 N 20 28 11 15 1031.0 1031.0 0.0
29/10:00am 10.5 4.7 2.5 57 3.4 N 22 30 12 16 1031.0 1031.0 0.0
29/09:30am 9.9 4.7 2.3 59 3.2 N 19 26 10 14 1031.4 1031.4 0.0
29/09:00am 9.4 4.1 1.9 59 3.1 N 19 26 10 14 1031.6 1031.6 0.0
29/08:30am 9.2 3.7 1.9 60 3.0 NNE 20 28 11 15 1031.1 1031.1 0.0
29/08:00am 9.0 3.1 2.0 61 2.9 NNE 22 28 12 15 1031.5 1031.5 0.0
29/07:30am 8.5 3.6 2.2 64 2.6 N 17 20 9 11 1031.7 1031.7 0.0
29/07:00am 8.3 3.4 2.0 64 2.6 NNE 17 22 9 12 1030.9 1030.9 0.0
29/06:30am 7.7 2.5 2.6 70 2.1 NNE 19 26 10 14 1030.4 1030.4 0.0
29/06:00am 7.7 3.3 2.6 70 2.1 NE 15 17 8 9 1030.3 1030.3 0.0
29/05:30am 6.9 2.5 2.8 75 1.7 NE 15 15 8 8 1030.8 1030.8 0.0
29/05:00am 7.3 3.3 3.0 74 1.8 NNE 13 15 7 8 1031.1 1031.1 0.0
29/04:30am 6.2 2.2 2.8 79 1.4 NNE 13 15 7 8 1031.0 1031.0 0.0
29/04:00am 6.8 3.2 2.7 75 1.7 NE 11 13 6 7 1031.2 1031.2 0.0
29/03:30am 7.6 3.6 2.8 71 2.0 NE 13 13 7 7 1030.9 1030.9 0.0
29/03:00am 7.8 4.6 3.0 71 2.0 N 9 11 5 6 1031.3 1031.3 0.0
29/02:30am 7.1 3.3 3.8 79 1.4 NNE 13 15 7 8 1031.0 1031.0 0.0
29/02:00am 6.8 3.1 4.2 83 1.1 NNE 13 17 7 9 1031.4 1031.4 0.0
29/01:30am 6.7 3.4 4.4 85 1.0 NE 11 15 6 8 1031.7 1031.7 0.0
29/01:00am 8.1 5.2 4.4 77 1.6 NNE 9 9 5 5 1032.5 1032.5 0.0
29/12:30am 8.4 4.7 4.7 77 1.6 NE 13 15 7 8 1032.4 1032.4 0.0
29/12:00am 8.1 4.5 5.2 82 1.3 NE 13 15 7 8 1032.7 1032.7 0.0
 
Date/Time
CST
Tmp

°C
App
Tmp
°C
Dew
Point
°C
Rel
Hum
%
Delta-T

°C
Wind Press
QNH
hPa
Press
MSL
hPa
Rain
since
9 am
mm
Dir
 
Spd
km/h
Gust
km/h
Spd
kts
Gust
kts
28/11:30pm 7.5 4.4 5.7 88 0.8 NE 11 15 6 8 1033.0 1033.0 0.0
28/11:00pm 8.5 5.5 6.1 85 1.1 NNE 11 11 6 6 1033.6 1033.6 0.0
28/10:30pm 7.4 4.7 5.8 90 0.7 NE 9 9 5 5 1033.4 1033.4 0.0
28/10:00pm 7.1 5.4 5.7 91 0.6 ENE 4 7 2 4 1034.1 1034.1 0.0
28/09:30pm 7.0 4.6 5.4 89 0.7 E 7 9 4 5 1034.2 1034.2 0.0
28/09:00pm 7.8 5.7 6.0 88 0.8 ESE 6 9 3 5 1034.2 1034.2 0.0
28/08:30pm 8.4 6.5 6.7 89 0.8 ENE 6 7 3 4 1034.6 1034.6 0.0
28/08:00pm 8.2 7.4 6.4 88 0.8 CALM 0 0 0 0 1034.6 1034.6 0.0
28/07:30pm 9.0 8.2 6.6 85 1.1 CALM 0 0 0 0 1034.5 1034.5 0.0
28/07:00pm 8.9 8.1 6.7 86 1.0 CALM 0 0 0 0 1034.6 1034.6 0.0
28/06:30pm 9.1 8.3 6.7 85 1.1 CALM 0 0 0 0 1034.4 1034.4 0.0
28/06:00pm 9.7 9.0 6.9 83 1.3 CALM 0 0 0 0 1034.6 1034.6 0.0
28/05:30pm 10.6 8.6 7.0 78 1.7 SW 7 9 4 5 1034.7 1034.7 0.0
28/05:00pm 11.1 9.2 6.6 74 2.1 WSW 6 9 3 5 1035.0 1035.0 0.0
28/04:30pm 11.5 9.0 6.6 72 2.3 WSW 9 11 5 6 1034.8 1034.8 0.0
28/04:00pm 11.8 9.0 6.9 72 2.3 WSW 11 13 6 7 1035.0 1035.0 0.0
28/03:30pm 12.4 9.1 6.2 66 2.9 WSW 13 13 7 7 1034.9 1034.9 0.0
28/03:00pm 12.3 8.9 6.1 66 2.9 W 13 15 7 8 1034.8 1034.8 0.0

Latest Capital City Observations: Canberra | Sydney | Melbourne | Brisbane | Adelaide | Perth | Hobart | Darwin

Other Formats:

Comma delimited format used in spreadsheet applications
http://www.bom.gov.au/fwo/IDS60901/IDS60901.94672.axf

JavaScript Object Notation format (JSON) in row-major order
http://www.bom.gov.au/fwo/IDS60901/IDS60901.94672.json